createdAt,value
2022-10-18T00:00:44.171Z,102602.78
2022-10-18T00:03:10.590Z,102597.53
2022-10-18T00:05:36.965Z,102607.03
2022-10-18T00:08:03.478Z,102612.47
2022-10-18T00:10:29.923Z,102605.53
2022-10-18T00:12:56.294Z,102590.66
2022-10-18T00:15:22.653Z,102596.75
2022-10-18T00:17:49.082Z,102594.31
2022-10-18T00:20:15.537Z,102596.94
2022-10-18T00:22:41.992Z,102601.31
2022-10-18T00:25:09.174Z,102596.88
2022-10-18T00:27:36.183Z,102596.00
2022-10-18T00:30:03.665Z,102603.06
2022-10-18T00:32:30.173Z,102600.44
2022-10-18T00:34:56.892Z,102593.63
2022-10-18T00:37:23.192Z,102604.22
2022-10-18T00:39:50.054Z,102608.66
2022-10-18T00:42:18.371Z,102609.59
2022-10-18T00:44:44.789Z,102613.94
2022-10-18T00:47:14.421Z,102606.09
2022-10-18T00:49:42.466Z,102605.38
2022-10-18T00:52:16.820Z,102620.06
2022-10-18T00:54:45.035Z,102614.06
2022-10-18T00:57:12.666Z,102615.06
2022-10-18T00:59:39.929Z,102618.56
2022-10-18T01:02:06.829Z,102610.75
2022-10-18T01:04:33.686Z,102615.19
2022-10-18T01:07:21.553Z,102619.41
2022-10-18T01:10:00.255Z,102625.56
2022-10-18T01:12:44.678Z,102623.94
2022-10-18T01:15:16.149Z,102627.63
2022-10-18T01:18:19.993Z,102616.28
2022-10-18T01:21:09.017Z,102620.72
2022-10-18T01:23:57.464Z,102632.03
2022-10-18T01:27:01.181Z,102626.06
2022-10-18T01:29:39.800Z,102641.09
2022-10-18T01:32:27.630Z,102640.06
2022-10-18T01:35:03.380Z,102644.50
2022-10-18T01:37:31.694Z,102642.88
2022-10-18T01:40:00.638Z,102637.63
2022-10-18T01:42:27.796Z,102633.28
2022-10-18T01:44:54.888Z,102642.03
2022-10-18T01:47:22.002Z,102638.59
2022-10-18T01:49:48.587Z,102645.66
2022-10-18T01:52:16.621Z,102647.50
2022-10-18T01:54:48.966Z,102642.22
2022-10-18T01:57:28.939Z,102628.25
2022-10-18T02:00:00.707Z,102631.97
2022-10-18T02:02:40.050Z,102626.63
2022-10-18T02:05:29.134Z,102631.91
2022-10-18T02:08:23.386Z,102635.50
2022-10-18T02:10:55.794Z,102644.31
2022-10-18T02:13:25.543Z,102642.63
2022-10-18T02:15:57.488Z,102640.03
2022-10-18T02:18:33.078Z,102640.84
2022-10-18T02:21:01.756Z,102638.28
2022-10-18T02:23:28.285Z,102643.56
2022-10-18T02:25:55.143Z,102641.91
2022-10-18T02:28:22.125Z,102639.44
2022-10-18T02:31:00.064Z,102648.25
2022-10-18T02:33:43.401Z,102643.84
2022-10-18T02:36:15.586Z,102639.63
2022-10-18T02:38:44.781Z,102637.88
2022-10-18T02:41:11.653Z,102636.16
2022-10-18T02:43:38.144Z,102637.03
2022-10-18T02:46:04.579Z,102640.78
2022-10-18T02:48:30.969Z,102639.13
2022-10-18T02:50:57.377Z,102641.69
2022-10-18T02:53:23.769Z,102639.13
2022-10-18T02:55:50.099Z,102640.94
2022-10-18T02:58:16.456Z,102639.22
2022-10-18T03:00:42.833Z,102639.38
2022-10-18T03:03:09.205Z,102638.59
2022-10-18T03:05:35.591Z,102632.44
2022-10-18T03:08:02.283Z,102630.81
2022-10-18T03:10:28.618Z,102642.25
2022-10-18T03:12:55.079Z,102644.06
2022-10-18T03:15:21.468Z,102637.13
2022-10-18T03:17:47.797Z,102641.41
2022-10-18T03:20:14.254Z,102637.13
2022-10-18T03:22:40.778Z,102640.72
2022-10-18T03:25:07.410Z,102638.13
2022-10-18T03:27:34.069Z,102635.47
2022-10-18T03:30:00.928Z,102639.78
2022-10-18T03:32:27.277Z,102642.53
2022-10-18T03:34:53.634Z,102638.19
2022-10-18T03:37:20.006Z,102650.38
2022-10-18T03:39:46.330Z,102649.59
2022-10-18T03:42:12.715Z,102649.59
2022-10-18T03:44:39.071Z,102641.75
2022-10-18T03:47:05.441Z,102640.22
2022-10-18T03:51:58.068Z,102656.84
2022-10-18T03:54:24.443Z,102649.91
2022-10-18T03:56:50.947Z,102648.19
2022-10-18T03:59:17.693Z,102640.31
2022-10-18T04:01:44.280Z,102643.13
2022-10-18T04:04:10.913Z,102644.94
2022-10-18T04:06:37.241Z,102643.22
2022-10-18T04:09:06.529Z,102643.22
2022-10-18T04:11:36.450Z,102639.78
2022-10-18T04:14:02.915Z,102636.44
2022-10-18T04:16:29.408Z,102637.44
2022-10-18T04:18:55.830Z,102650.59
2022-10-18T04:21:22.340Z,102657.53
2022-10-18T04:23:49.634Z,102654.91
2022-10-18T04:26:16.678Z,102655.00
2022-10-18T04:28:43.881Z,102644.59
2022-10-18T04:31:11.407Z,102640.53
2022-10-18T04:33:38.641Z,102639.69
2022-10-18T04:36:05.543Z,102636.19
2022-10-18T04:38:32.029Z,102634.50
2022-10-18T04:40:58.601Z,102641.38
2022-10-18T04:43:25.092Z,102639.88
2022-10-18T04:45:51.486Z,102644.25
2022-10-18T04:48:18.210Z,102635.63
2022-10-18T04:50:47.476Z,102644.34
2022-10-18T04:53:14.042Z,102643.50
2022-10-18T04:55:42.893Z,102645.25
2022-10-18T04:58:09.529Z,102638.22
2022-10-18T05:00:39.962Z,102637.34
2022-10-18T05:03:07.308Z,102653.91
2022-10-18T05:05:49.995Z,102644.31
2022-10-18T05:08:20.673Z,102646.13
2022-10-18T05:10:46.999Z,102650.56
2022-10-18T05:13:13.462Z,102655.75
2022-10-18T05:15:39.839Z,102662.78
2022-10-18T05:18:06.187Z,102661.81
2022-10-18T05:20:32.609Z,102664.25
2022-10-18T05:22:59.035Z,102679.09
2022-10-18T05:25:25.648Z,102676.47
2022-10-18T05:27:52.125Z,102673.84
2022-10-18T05:30:18.683Z,102678.22
2022-10-18T05:32:44.991Z,102678.22
2022-10-18T05:35:11.358Z,102682.50
2022-10-18T05:37:37.690Z,102687.84
2022-10-18T05:40:04.566Z,102688.84
2022-10-18T05:42:31.162Z,102688.84
2022-10-18T05:44:57.711Z,102682.69
2022-10-18T05:47:24.183Z,102689.66
2022-10-18T05:49:50.621Z,102694.88
2022-10-18T05:52:17.617Z,102684.47
2022-10-18T05:54:43.979Z,102681.84
2022-10-18T05:57:10.314Z,102699.31
2022-10-18T05:59:36.651Z,102716.78
2022-10-18T06:02:02.986Z,102717.81
2022-10-18T06:04:29.364Z,102715.31
2022-10-18T06:06:56.174Z,102713.50
2022-10-18T06:09:22.634Z,102721.34
2022-10-18T06:11:48.986Z,102731.94
2022-10-18T06:14:15.409Z,102736.41
2022-10-18T06:16:41.769Z,102739.09
2022-10-18T06:19:08.112Z,102732.91
2022-10-18T06:21:35.014Z,102733.91
2022-10-18T06:24:01.419Z,102745.44
2022-10-18T06:26:28.789Z,102745.53
2022-10-18T06:28:55.430Z,102751.66
2022-10-18T06:31:21.882Z,102744.63
2022-10-18T06:33:49.180Z,102753.28
2022-10-18T06:36:18.864Z,102751.56
2022-10-18T06:38:45.319Z,102751.63
2022-10-18T06:41:11.759Z,102762.22
2022-10-18T06:43:38.220Z,102760.53
2022-10-18T06:46:06.829Z,102762.38
2022-10-18T06:48:36.770Z,102760.63
2022-10-18T06:51:05.829Z,102773.66
2022-10-18T06:53:34.391Z,102777.09
2022-10-18T06:56:02.183Z,102771.16
2022-10-18T06:58:29.721Z,102782.44
2022-10-18T07:00:56.764Z,102791.00
2022-10-18T07:03:24.085Z,102798.84
2022-10-18T07:05:50.569Z,102794.56
2022-10-18T07:08:17.695Z,102788.53
2022-10-18T07:10:51.979Z,102790.94
2022-10-18T07:13:33.974Z,102789.22
2022-10-18T07:16:01.557Z,102791.69
2022-10-18T07:18:28.364Z,102792.50
2022-10-18T07:20:55.213Z,102788.09
2022-10-18T07:23:23.707Z,102789.75
2022-10-18T07:25:50.683Z,102798.41
2022-10-18T07:28:17.022Z,102806.31
2022-10-18T07:30:43.698Z,102813.25
2022-10-18T07:33:10.104Z,102809.66
2022-10-18T07:35:36.559Z,102819.25
2022-10-18T07:38:02.905Z,102811.47
2022-10-18T07:40:29.225Z,102814.91
2022-10-18T07:42:55.652Z,102820.09
2022-10-18T07:45:22.172Z,102815.66
2022-10-18T07:47:53.699Z,102812.94
2022-10-18T07:50:20.243Z,102821.66
2022-10-18T07:52:46.596Z,102831.09
2022-10-18T07:55:13.115Z,102835.41
2022-10-18T07:57:39.878Z,102836.03
2022-10-18T08:00:08.753Z,102841.84
2022-10-18T08:02:35.427Z,102840.72
2022-10-18T08:05:01.768Z,102844.81
2022-10-18T08:07:29.375Z,102847.06
2022-10-18T08:09:55.784Z,102844.03
2022-10-18T08:12:23.037Z,102848.94
2022-10-18T08:14:49.372Z,102848.69
2022-10-18T08:17:15.860Z,102851.94
2022-10-18T08:19:52.842Z,102850.81
2022-10-18T08:22:28.545Z,102847.84
2022-10-18T08:24:54.907Z,102853.69
2022-10-18T08:27:21.296Z,102857.13
2022-10-18T08:29:48.051Z,102852.44
2022-10-18T08:32:14.598Z,102848.56
2022-10-18T08:34:40.966Z,102843.94
2022-10-18T08:37:07.281Z,102828.78
2022-10-18T08:39:33.636Z,102846.66
2022-10-18T08:42:15.261Z,102850.63
2022-10-18T08:44:50.961Z,102850.31
2022-10-18T08:47:21.617Z,102842.16
2022-10-18T08:49:51.115Z,102844.44
2022-10-18T08:52:48.828Z,102849.88
2022-10-18T08:55:45.040Z,102840.63
2022-10-18T08:58:21.635Z,102849.53
2022-10-18T09:01:12.609Z,102853.13
2022-10-18T09:03:58.596Z,102857.16
2022-10-18T09:06:52.891Z,102846.09
2022-10-18T09:09:33.392Z,102849.00
2022-10-18T09:12:09.042Z,102852.28
2022-10-18T09:14:41.500Z,102867.59
2022-10-18T09:17:15.692Z,102852.31
2022-10-18T09:20:11.951Z,102864.84
2022-10-18T09:22:52.982Z,102874.25
2022-10-18T09:25:21.488Z,102876.81
2022-10-18T09:27:53.285Z,102869.47
2022-10-18T09:30:34.819Z,102867.19
2022-10-18T09:33:13.246Z,102874.03
2022-10-18T09:36:05.061Z,102878.66
2022-10-18T09:38:37.815Z,102872.34
2022-10-18T09:41:18.516Z,102876.38
2022-10-18T09:43:51.410Z,102893.72
2022-10-18T09:46:20.401Z,102883.31
2022-10-18T09:49:16.419Z,102882.25
2022-10-18T09:51:45.371Z,102878.44
2022-10-18T09:54:24.442Z,102879.06
2022-10-18T09:57:04.444Z,102883.97
2022-10-18T09:59:41.830Z,102891.06
2022-10-18T10:02:23.896Z,102880.31
2022-10-18T10:04:51.701Z,102894.22
2022-10-18T10:07:21.399Z,102897.25
2022-10-18T10:09:59.429Z,102891.72
2022-10-18T10:12:28.037Z,102891.72
2022-10-18T10:14:54.495Z,102899.63
2022-10-18T10:17:26.248Z,102908.13
2022-10-18T10:19:58.848Z,102909.94
2022-10-18T10:22:29.075Z,102904.81
2022-10-18T10:24:55.687Z,102905.03
2022-10-18T10:27:33.065Z,102904.22
2022-10-18T10:30:06.835Z,102903.19
2022-10-18T10:32:46.842Z,102907.84
2022-10-18T10:35:52.704Z,102916.16
2022-10-18T10:38:28.033Z,102916.00
2022-10-18T10:40:55.475Z,102915.25
2022-10-18T10:43:38.734Z,102911.16
2022-10-18T10:46:11.774Z,102925.00
2022-10-18T10:48:49.281Z,102923.88
2022-10-18T10:51:29.461Z,102917.72
2022-10-18T10:54:02.921Z,102912.50
2022-10-18T10:56:37.214Z,102910.25
2022-10-18T10:59:08.691Z,102923.91
2022-10-18T11:01:36.399Z,102921.13
2022-10-18T11:04:24.321Z,102917.25
2022-10-18T11:07:00.844Z,102922.81
2022-10-18T11:09:46.356Z,102922.97
2022-10-18T11:12:30.839Z,102922.97
2022-10-18T11:15:09.922Z,102913.13
2022-10-18T11:17:46.352Z,102930.53
2022-10-18T11:20:24.780Z,102927.84
2022-10-18T11:23:01.059Z,102922.22
2022-10-18T11:25:45.938Z,102912.97
2022-10-18T11:28:24.321Z,102915.75
2022-10-18T11:31:03.557Z,102925.72
2022-10-18T11:34:08.784Z,102924.72
2022-10-18T11:36:57.903Z,102920.09
2022-10-18T11:39:59.218Z,102917.66
2022-10-18T11:42:43.736Z,102934.59
2022-10-18T11:45:27.831Z,102932.69
2022-10-18T11:48:16.847Z,102927.28
2022-10-18T11:51:01.362Z,102920.38
2022-10-18T11:53:55.863Z,102937.72
2022-10-18T11:56:39.020Z,102927.13
2022-10-18T11:59:08.795Z,102926.13
2022-10-18T12:01:51.611Z,102926.00
2022-10-18T12:04:23.244Z,102914.69
2022-10-18T12:06:54.541Z,102924.16
2022-10-18T12:09:29.775Z,102928.66
2022-10-18T12:12:02.683Z,102924.22
2022-10-18T12:14:58.172Z,102922.44
2022-10-18T12:17:49.921Z,102922.66
2022-10-18T12:20:16.745Z,102914.91
2022-10-18T12:22:50.083Z,102905.84
2022-10-18T12:25:18.074Z,102913.69
2022-10-18T12:27:53.061Z,102909.94
2022-10-18T12:31:02.926Z,102915.19
2022-10-18T12:33:35.967Z,102909.00
2022-10-18T12:36:22.964Z,102900.03
2022-10-18T12:39:02.702Z,102909.66
2022-10-18T12:41:32.442Z,102903.72
2022-10-18T12:44:20.965Z,102902.94
2022-10-18T12:46:56.291Z,102910.34
2022-10-18T12:49:31.708Z,102903.50
2022-10-18T12:52:00.835Z,102894.94
2022-10-18T12:54:31.680Z,102896.56
2022-10-18T12:57:00.166Z,102895.78
2022-10-18T12:59:26.776Z,102895.91
2022-10-18T13:01:53.251Z,102900.59
2022-10-18T13:04:29.203Z,102892.78
2022-10-18T13:07:02.999Z,102892.06
2022-10-18T13:10:10.800Z,102885.88
2022-10-18T13:12:52.103Z,102886.75
2022-10-18T13:15:43.627Z,102882.53
2022-10-18T13:18:26.721Z,102875.00
2022-10-18T13:21:12.768Z,102871.63
2022-10-18T13:23:57.822Z,102871.06
2022-10-18T13:26:31.837Z,102877.16
2022-10-18T13:29:16.585Z,102872.78
2022-10-18T13:31:55.433Z,102870.94
2022-10-18T13:34:24.905Z,102878.16
2022-10-18T13:37:23.958Z,102883.53
2022-10-18T13:39:52.097Z,102887.28
2022-10-18T13:42:27.563Z,102893.31
2022-10-18T13:44:53.932Z,102890.75
2022-10-18T13:47:37.332Z,102888.84
2022-10-18T13:50:27.935Z,102894.09
2022-10-18T13:53:11.670Z,102882.75
2022-10-18T13:55:59.824Z,102882.78
2022-10-18T13:58:31.283Z,102892.53
2022-10-18T14:01:30.176Z,102894.50
2022-10-18T14:04:21.711Z,102886.81
2022-10-18T14:06:48.723Z,102891.50
2022-10-18T14:09:43.750Z,102891.53
2022-10-18T14:12:47.680Z,102892.41
2022-10-18T14:15:20.869Z,102887.41
2022-10-18T14:18:00.083Z,102903.97
2022-10-18T14:20:49.477Z,102897.19
2022-10-18T14:23:31.294Z,102904.97
2022-10-18T14:26:14.955Z,102906.72
2022-10-18T14:28:59.137Z,102918.47
2022-10-18T14:31:27.019Z,102908.97
2022-10-18T14:33:58.043Z,102909.16
2022-10-18T14:36:34.681Z,102905.69
2022-10-18T14:39:03.574Z,102911.06
2022-10-18T14:41:35.418Z,102910.41
2022-10-18T14:44:24.508Z,102914.69
2022-10-18T14:47:16.308Z,102921.91
2022-10-18T14:49:44.786Z,102914.13
2022-10-18T14:52:18.160Z,102916.75
2022-10-18T14:54:45.097Z,102917.06
2022-10-18T14:57:26.662Z,102918.00
2022-10-18T14:59:58.027Z,102921.69
2022-10-18T15:02:26.220Z,102915.53
2022-10-18T15:05:04.790Z,102909.34
2022-10-18T15:07:32.587Z,102916.56
2022-10-18T15:10:01.116Z,102921.03
2022-10-18T15:12:33.903Z,102925.59
2022-10-18T15:15:17.155Z,102919.53
2022-10-18T15:17:45.083Z,102920.59
2022-10-18T15:20:32.419Z,102927.44
2022-10-18T15:23:27.874Z,102930.94
2022-10-18T15:26:03.824Z,102931.09
2022-10-18T15:28:35.975Z,102920.91
2022-10-18T15:31:03.387Z,102917.53
2022-10-18T15:33:34.418Z,102913.28
2022-10-18T15:36:17.487Z,102911.56
2022-10-18T15:38:47.495Z,102919.63
2022-10-18T15:41:43.420Z,102929.28
2022-10-18T15:44:19.839Z,102926.03
2022-10-18T15:46:47.677Z,102921.78
2022-10-18T15:49:45.026Z,102923.41
2022-10-18T15:52:38.590Z,102925.53
2022-10-18T15:55:41.935Z,102925.59
2022-10-18T15:58:18.563Z,102932.00
2022-10-18T16:00:46.506Z,102932.09
2022-10-18T16:03:13.877Z,102932.28
2022-10-18T16:05:40.727Z,102926.16
2022-10-18T16:08:20.604Z,102927.03
2022-10-18T16:10:46.954Z,102925.34
2022-10-18T16:13:13.289Z,102932.41
2022-10-18T16:15:39.809Z,102931.75
2022-10-18T16:18:06.149Z,102931.97
2022-10-18T16:20:32.484Z,102939.09
2022-10-18T16:22:58.856Z,102939.09
2022-10-18T16:25:25.424Z,102937.44
2022-10-18T16:27:51.826Z,102937.44
2022-10-18T16:30:21.001Z,102934.88
2022-10-18T16:32:48.902Z,102936.81
2022-10-18T16:35:15.593Z,102940.59
2022-10-18T16:37:43.194Z,102944.97
2022-10-18T16:40:22.849Z,102941.50
2022-10-18T16:42:49.352Z,102945.25
2022-10-18T16:45:15.900Z,102948.09
2022-10-18T16:47:42.625Z,102943.75
2022-10-18T16:50:15.118Z,102952.38
2022-10-18T16:52:41.733Z,102953.38
2022-10-18T16:55:15.373Z,102963.19
2022-10-18T16:57:43.218Z,102964.22
2022-10-18T17:00:18.972Z,102961.63
2022-10-18T17:02:45.471Z,102974.06
2022-10-18T17:05:11.932Z,102977.63
2022-10-18T17:07:38.710Z,102974.47
2022-10-18T17:10:05.761Z,102982.38
2022-10-18T17:12:32.582Z,102971.81
2022-10-18T17:14:59.287Z,102977.13
2022-10-18T17:17:25.639Z,102977.25
2022-10-18T17:19:52.047Z,102981.72
2022-10-18T17:22:18.429Z,102987.13
2022-10-18T17:24:45.005Z,102987.28
2022-10-18T17:27:11.572Z,102998.78
2022-10-18T17:29:38.020Z,102999.84
2022-10-18T17:32:04.676Z,103004.19
2022-10-18T17:34:31.156Z,103002.59
2022-10-18T17:36:57.825Z,103002.09
2022-10-18T17:39:24.530Z,102995.13
2022-10-18T17:41:50.992Z,102999.72
2022-10-18T17:44:17.431Z,102999.97
2022-10-18T17:46:43.965Z,102999.34
2022-10-18T17:49:10.591Z,102998.69
2022-10-18T17:51:37.269Z,102998.00
2022-10-18T17:54:05.845Z,102994.59
2022-10-18T17:56:39.514Z,102995.31
2022-10-18T17:59:05.946Z,103004.91
2022-10-18T18:01:35.467Z,103001.50
2022-10-18T18:04:03.600Z,103005.47
2022-10-18T18:06:39.593Z,103009.97
2022-10-18T18:09:09.162Z,103022.25
2022-10-18T18:11:37.958Z,103022.31
2022-10-18T18:14:09.998Z,103025.84
2022-10-18T18:16:45.357Z,103026.72
2022-10-18T18:19:12.406Z,103023.56
2022-10-18T18:21:39.901Z,103020.13
2022-10-18T18:24:07.179Z,103016.72
2022-10-18T18:26:35.209Z,103023.72
2022-10-18T18:31:34.404Z,103022.94
2022-10-18T18:34:05.040Z,103020.44
2022-10-18T18:36:32.514Z,103016.09
2022-10-18T18:38:59.418Z,103015.47
2022-10-18T18:41:30.187Z,103018.97
2022-10-18T18:43:59.301Z,103026.09
2022-10-18T18:46:30.585Z,103030.44
2022-10-18T18:48:58.162Z,103025.53
2022-10-18T18:51:25.224Z,103034.25
2022-10-18T18:53:51.726Z,103033.47
2022-10-18T18:58:48.517Z,103030.75
2022-10-18T19:01:20.781Z,103035.16
2022-10-18T19:03:50.836Z,103040.56
2022-10-18T19:06:22.454Z,103029.41
2022-10-18T19:08:49.724Z,103045.25
2022-10-18T19:11:18.746Z,103035.66
2022-10-18T19:13:45.609Z,103037.31
2022-10-18T19:16:20.756Z,103032.22
2022-10-18T19:18:59.646Z,103038.47
2022-10-18T19:21:29.726Z,103034.25
2022-10-18T19:23:57.902Z,103035.31
2022-10-18T19:26:29.283Z,103037.00
2022-10-18T19:28:55.747Z,103037.03
2022-10-18T19:31:22.986Z,103037.19
2022-10-18T19:33:59.393Z,103041.69
2022-10-18T19:36:26.671Z,103042.78
2022-10-18T19:38:53.266Z,103041.00
2022-10-18T19:41:19.960Z,103040.22
2022-10-18T19:43:46.748Z,103038.50
2022-10-18T19:46:13.102Z,103030.75
2022-10-18T19:48:39.475Z,103032.78
2022-10-18T19:51:09.355Z,103040.66
2022-10-18T19:53:36.284Z,103039.84
2022-10-18T19:56:05.353Z,103044.22
2022-10-18T19:58:32.636Z,103039.81
2022-10-18T20:01:00.295Z,103033.72
2022-10-18T20:03:30.348Z,103028.66
2022-10-18T20:06:01.125Z,103033.19
2022-10-18T20:08:30.874Z,103031.53
2022-10-18T20:11:01.863Z,103036.75
2022-10-18T20:13:28.599Z,103035.00
2022-10-18T20:15:55.067Z,103043.00
2022-10-18T20:18:21.619Z,103044.69
2022-10-18T20:20:49.177Z,103044.78
2022-10-18T20:23:17.086Z,103043.13
2022-10-18T20:25:54.868Z,103048.34
2022-10-18T20:28:22.627Z,103043.25
2022-10-18T20:30:49.021Z,103045.97
2022-10-18T20:33:16.107Z,103047.09
2022-10-18T20:35:42.701Z,103051.41
2022-10-18T20:38:09.192Z,103046.28
2022-10-18T20:40:35.646Z,103048.91
2022-10-18T20:43:03.808Z,103043.81
2022-10-18T20:45:30.361Z,103044.63
2022-10-18T20:47:56.753Z,103040.31
2022-10-18T20:50:23.128Z,103039.59
2022-10-18T20:52:51.259Z,103043.97
2022-10-18T20:55:18.817Z,103037.09
2022-10-18T20:57:45.169Z,103041.47
2022-10-18T21:00:12.882Z,103038.16
2022-10-18T21:02:39.290Z,103035.63
2022-10-18T21:05:05.949Z,103026.03
2022-10-18T21:07:32.508Z,103032.16
2022-10-18T21:09:59.082Z,103032.31
2022-10-18T21:12:27.570Z,103032.31
2022-10-18T21:14:55.383Z,103036.75
2022-10-18T21:17:21.803Z,103028.84
2022-10-18T21:19:48.259Z,103024.59
2022-10-18T21:22:14.604Z,103019.38
2022-10-18T21:24:42.418Z,103022.00
2022-10-18T21:27:08.965Z,103032.47
2022-10-18T21:29:35.312Z,103030.69
2022-10-18T21:32:02.728Z,103027.22
2022-10-18T21:34:29.090Z,103031.53
2022-10-18T21:36:55.535Z,103033.31
2022-10-18T21:41:50.715Z,103037.88
2022-10-18T21:44:17.663Z,103041.41
2022-10-18T21:46:45.146Z,103035.41
2022-10-18T21:49:11.743Z,103039.00
2022-10-18T21:51:38.724Z,103040.78
2022-10-18T21:54:08.637Z,103048.56
2022-10-18T21:56:35.939Z,103037.34
2022-10-18T21:59:03.511Z,103040.88
2022-10-18T22:01:36.361Z,103043.47
2022-10-18T22:04:05.531Z,103045.41
2022-10-18T22:09:08.329Z,103034.09
2022-10-18T22:11:38.807Z,103023.75
2022-10-18T22:14:05.348Z,103026.38
2022-10-18T22:16:31.710Z,103022.91
2022-10-18T22:19:00.761Z,103016.84
2022-10-18T22:21:28.235Z,103017.72
2022-10-18T22:23:58.905Z,103018.63
2022-10-18T22:26:25.235Z,103019.56
2022-10-18T22:28:57.259Z,103014.44
2022-10-18T22:31:25.905Z,103011.03
2022-10-18T22:33:58.287Z,103021.50
2022-10-18T22:36:25.791Z,103018.88
2022-10-18T22:38:52.420Z,103017.19
2022-10-18T22:41:19.114Z,103015.59
2022-10-18T22:43:47.592Z,103025.16
2022-10-18T22:46:14.996Z,103028.63
2022-10-18T22:48:42.181Z,103032.97
2022-10-18T22:51:08.737Z,103021.69
2022-10-18T22:53:36.291Z,103023.47
2022-10-18T22:56:03.781Z,103021.84
2022-10-18T22:58:30.580Z,103014.09
2022-10-18T23:01:03.100Z,103014.88
2022-10-18T23:03:29.540Z,103001.03
2022-10-18T23:05:56.259Z,103007.16
2022-10-18T23:08:22.820Z,103010.59
2022-10-18T23:10:54.052Z,103010.59
2022-10-18T23:13:20.556Z,103013.25
2022-10-18T23:15:46.899Z,103003.84
2022-10-18T23:18:13.246Z,103001.25
2022-10-18T23:20:39.606Z,102998.72
2022-10-18T23:23:06.086Z,102994.44
2022-10-18T23:25:36.420Z,103000.56
2022-10-18T23:28:03.582Z,102990.22
2022-10-18T23:30:30.629Z,102998.03
2022-10-18T23:32:57.027Z,102995.47
2022-10-18T23:35:23.669Z,103002.38
2022-10-18T23:37:51.206Z,103005.81
2022-10-18T23:40:17.578Z,103005.03
2022-10-18T23:42:43.920Z,103018.00
2022-10-18T23:45:10.545Z,103008.56
2022-10-18T23:47:37.004Z,103006.88
2022-10-18T23:50:03.811Z,103012.09
2022-10-18T23:52:30.140Z,103019.91
2022-10-18T23:54:56.509Z,103022.66
2022-10-18T23:57:22.931Z,103015.78
2022-10-18T23:59:49.437Z,103015.78
